Terminal Aerodrome Forecast
Issued by NWS

Home | Current Version | Previous Version | Text Only | Print | Product List | Glossary On
Versions: 1 2 3 4 5 6 7 8 9 10 11 12 13 14 15 16 17 18 19 20 21 22 23 24 25 26 27 28 29 30 31 32
000
FTAK31 PAFA 212328
TAFATA
TAF
PATA 212328Z 2200/2224 07012KT 1SM -SN BKN015
     FM220700 11008G14KT 1 1/2SM -SN BR BKN003 OVC007
     FM222200 17005KT 2SM BR OVC050=

USA.gov is the U.S. government's official web portal to all federal, state and local government web resources and services.